sensor_id;sensor_type;location;lat;lon;timestamp;P1;durP1;ratioP1;P2;durP2;ratioP2
64686;SDS011;51113;53.646;-113.674;2023-02-04T00:01:15;5.05;;;1.90;;
64686;SDS011;51113;53.646;-113.674;2023-02-04T00:03:44;5.18;;;2.17;;
64686;SDS011;51113;53.646;-113.674;2023-02-04T00:06:16;6.18;;;2.67;;
64686;SDS011;51113;53.646;-113.674;2023-02-04T00:08:45;4.15;;;1.70;;
64686;SDS011;51113;53.646;-113.674;2023-02-04T00:11:14;4.22;;;1.77;;
64686;SDS011;51113;53.646;-113.674;2023-02-04T00:13:43;6.00;;;1.85;;
64686;SDS011;51113;53.646;-113.674;2023-02-04T00:16:11;4.10;;;2.08;;
64686;SDS011;51113;53.646;-113.674;2023-02-04T00:18:40;3.47;;;2.17;;
64686;SDS011;51113;53.646;-113.674;2023-02-04T00:21:09;4.75;;;2.30;;
64686;SDS011;51113;53.646;-113.674;2023-02-04T00:23:38;7.93;;;2.28;;
64686;SDS011;51113;53.646;-113.674;2023-02-04T00:26:06;5.65;;;2.60;;
64686;SDS011;51113;53.646;-113.674;2023-02-04T00:28:35;3.78;;;1.90;;
64686;SDS011;51113;53.646;-113.674;2023-02-04T00:31:04;5.72;;;1.85;;
64686;SDS011;51113;53.646;-113.674;2023-02-04T00:33:32;4.00;;;2.00;;
64686;SDS011;51113;53.646;-113.674;2023-02-04T00:36:00;4.20;;;2.00;;
64686;SDS011;51113;53.646;-113.674;2023-02-04T00:38:29;4.53;;;2.13;;
64686;SDS011;51113;53.646;-113.674;2023-02-04T00:40:58;2.35;;;1.60;;
64686;SDS011;51113;53.646;-113.674;2023-02-04T00:43:26;5.38;;;2.10;;
64686;SDS011;51113;53.646;-113.674;2023-02-04T00:45:55;3.20;;;1.83;;
64686;SDS011;51113;53.646;-113.674;2023-02-04T00:48:24;4.57;;;2.00;;
64686;SDS011;51113;53.646;-113.674;2023-02-04T00:50:52;3.53;;;2.33;;
64686;SDS011;51113;53.646;-113.674;2023-02-04T00:53:21;4.20;;;2.45;;
64686;SDS011;51113;53.646;-113.674;2023-02-04T00:55:50;5.70;;;2.67;;
64686;SDS011;51113;53.646;-113.674;2023-02-04T00:58:18;4.15;;;2.20;;
64686;SDS011;51113;53.646;-113.674;2023-02-04T01:00:47;5.45;;;2.20;;
64686;SDS011;51113;53.646;-113.674;2023-02-04T01:03:16;5.18;;;2.20;;
64686;SDS011;51113;53.646;-113.674;2023-02-04T01:05:45;6.40;;;2.50;;
64686;SDS011;51113;53.646;-113.674;2023-02-04T01:08:14;4.35;;;2.30;;
64686;SDS011;51113;53.646;-113.674;2023-02-04T01:10:42;5.45;;;2.28;;
64686;SDS011;51113;53.646;-113.674;2023-02-04T01:13:11;5.80;;;2.22;;
64686;SDS011;51113;53.646;-113.674;2023-02-04T01:15:40;8.07;;;2.50;;
64686;SDS011;51113;53.646;-113.674;2023-02-04T01:18:08;5.90;;;2.50;;
64686;SDS011;51113;53.646;-113.674;2023-02-04T01:20:37;4.57;;;2.58;;
64686;SDS011;51113;53.646;-113.674;2023-02-04T01:23:05;6.35;;;2.55;;
64686;SDS011;51113;53.646;-113.674;2023-02-04T01:25:34;5.47;;;2.35;;
64686;SDS011;51113;53.646;-113.674;2023-02-04T01:28:03;4.35;;;2.55;;
64686;SDS011;51113;53.646;-113.674;2023-02-04T01:30:31;6.25;;;2.58;;
64686;SDS011;51113;53.646;-113.674;2023-02-04T01:33:00;8.77;;;2.60;;
64686;SDS011;51113;53.646;-113.674;2023-02-04T01:35:29;14.98;;;2.95;;
64686;SDS011;51113;53.646;-113.674;2023-02-04T01:37:57;10.07;;;2.72;;
64686;SDS011;51113;53.646;-113.674;2023-02-04T01:40:26;7.40;;;2.80;;
64686;SDS011;51113;53.646;-113.674;2023-02-04T01:42:55;7.75;;;3.17;;
64686;SDS011;51113;53.646;-113.674;2023-02-04T01:45:23;8.63;;;2.40;;
64686;SDS011;51113;53.646;-113.674;2023-02-04T01:47:52;7.72;;;2.95;;
64686;SDS011;51113;53.646;-113.674;2023-02-04T01:50:21;8.13;;;2.70;;
64686;SDS011;51113;53.646;-113.674;2023-02-04T01:52:52;10.13;;;3.22;;
64686;SDS011;51113;53.646;-113.674;2023-02-04T01:55:23;8.35;;;2.83;;
64686;SDS011;51113;53.646;-113.674;2023-02-04T01:57:54;7.45;;;3.38;;
64686;SDS011;51113;53.646;-113.674;2023-02-04T02:00:26;6.95;;;3.45;;
64686;SDS011;51113;53.646;-113.674;2023-02-04T02:02:57;11.52;;;4.25;;
64686;SDS011;51113;53.646;-113.674;2023-02-04T02:05:37;11.95;;;4.68;;
64686;SDS011;51113;53.646;-113.674;2023-02-04T02:08:10;11.80;;;4.75;;
64686;SDS011;51113;53.646;-113.674;2023-02-04T02:10:41;14.20;;;5.20;;
64686;SDS011;51113;53.646;-113.674;2023-02-04T02:13:12;10.27;;;5.28;;
64686;SDS011;51113;53.646;-113.674;2023-02-04T02:15:43;13.65;;;5.82;;
64686;SDS011;51113;53.646;-113.674;2023-02-04T02:18:12;13.07;;;5.63;;
64686;SDS011;51113;53.646;-113.674;2023-02-04T02:20:42;10.63;;;5.63;;
64686;SDS011;51113;53.646;-113.674;2023-02-04T02:23:20;12.52;;;5.10;;
64686;SDS011;51113;53.646;-113.674;2023-02-04T02:25:54;15.30;;;5.43;;
64686;SDS011;51113;53.646;-113.674;2023-02-04T02:28:22;11.80;;;5.30;;
64686;SDS011;51113;53.646;-113.674;2023-02-04T02:30:51;14.93;;;5.43;;
64686;SDS011;51113;53.646;-113.674;2023-02-04T02:33:20;10.15;;;4.18;;
64686;SDS011;51113;53.646;-113.674;2023-02-04T02:35:49;8.25;;;3.90;;
64686;SDS011;51113;53.646;-113.674;2023-02-04T02:38:18;8.55;;;3.65;;
64686;SDS011;51113;53.646;-113.674;2023-02-04T02:40:47;6.32;;;3.47;;
64686;SDS011;51113;53.646;-113.674;2023-02-04T02:43:17;8.70;;;4.03;;
64686;SDS011;51113;53.646;-113.674;2023-02-04T02:45:48;9.85;;;3.85;;
64686;SDS011;51113;53.646;-113.674;2023-02-04T02:48:17;7.07;;;3.00;;
64686;SDS011;51113;53.646;-113.674;2023-02-04T02:50:45;6.75;;;2.70;;
64686;SDS011;51113;53.646;-113.674;2023-02-04T02:53:15;6.57;;;2.78;;
64686;SDS011;51113;53.646;-113.674;2023-02-04T02:55:45;4.93;;;2.50;;
64686;SDS011;51113;53.646;-113.674;2023-02-04T02:58:27;8.10;;;2.55;;
64686;SDS011;51113;53.646;-113.674;2023-02-04T03:01:02;4.60;;;2.63;;
64686;SDS011;51113;53.646;-113.674;2023-02-04T03:03:33;4.97;;;2.42;;
64686;SDS011;51113;53.646;-113.674;2023-02-04T03:06:18;9.63;;;2.80;;
64686;SDS011;51113;53.646;-113.674;2023-02-04T03:11:17;9.82;;;2.65;;
64686;SDS011;51113;53.646;-113.674;2023-02-04T03:13:45;6.78;;;2.97;;
64686;SDS011;51113;53.646;-113.674;2023-02-04T03:16:13;5.55;;;2.45;;
64686;SDS011;51113;53.646;-113.674;2023-02-04T03:18:42;6.90;;;2.92;;
64686;SDS011;51113;53.646;-113.674;2023-02-04T03:21:10;5.15;;;2.75;;
64686;SDS011;51113;53.646;-113.674;2023-02-04T03:23:39;5.80;;;2.67;;
64686;SDS011;51113;53.646;-113.674;2023-02-04T03:26:07;5.95;;;3.00;;
64686;SDS011;51113;53.646;-113.674;2023-02-04T03:28:39;5.25;;;2.65;;
64686;SDS011;51113;53.646;-113.674;2023-02-04T03:31:09;7.38;;;3.05;;
64686;SDS011;51113;53.646;-113.674;2023-02-04T03:33:38;7.47;;;3.15;;
64686;SDS011;51113;53.646;-113.674;2023-02-04T03:36:07;6.80;;;3.40;;
64686;SDS011;51113;53.646;-113.674;2023-02-04T03:38:36;6.88;;;3.63;;
64686;SDS011;51113;53.646;-113.674;2023-02-04T03:41:04;5.40;;;3.25;;
64686;SDS011;51113;53.646;-113.674;2023-02-04T03:43:33;6.03;;;3.42;;
64686;SDS011;51113;53.646;-113.674;2023-02-04T03:46:01;11.55;;;3.42;;
64686;SDS011;51113;53.646;-113.674;2023-02-04T03:48:30;6.93;;;3.63;;
64686;SDS011;51113;53.646;-113.674;2023-02-04T03:50:59;9.63;;;4.07;;
64686;SDS011;51113;53.646;-113.674;2023-02-04T03:53:27;9.23;;;4.75;;
64686;SDS011;51113;53.646;-113.674;2023-02-04T03:55:56;13.35;;;4.18;;
64686;SDS011;51113;53.646;-113.674;2023-02-04T03:58:24;6.40;;;4.10;;
64686;SDS011;51113;53.646;-113.674;2023-02-04T04:00:53;8.73;;;4.32;;
64686;SDS011;51113;53.646;-113.674;2023-02-04T04:03:22;11.63;;;4.60;;
64686;SDS011;51113;53.646;-113.674;2023-02-04T04:05:50;11.65;;;4.90;;
64686;SDS011;51113;53.646;-113.674;2023-02-04T04:08:19;9.98;;;4.18;;
64686;SDS011;51113;53.646;-113.674;2023-02-04T04:10:47;13.60;;;4.97;;
64686;SDS011;51113;53.646;-113.674;2023-02-04T04:13:16;10.30;;;4.35;;
64686;SDS011;51113;53.646;-113.674;2023-02-04T04:15:45;9.65;;;4.30;;
64686;SDS011;51113;53.646;-113.674;2023-02-04T04:18:13;9.68;;;4.05;;
64686;SDS011;51113;53.646;-113.674;2023-02-04T04:20:42;10.75;;;4.43;;
64686;SDS011;51113;53.646;-113.674;2023-02-04T04:23:10;8.98;;;3.92;;
64686;SDS011;51113;53.646;-113.674;2023-02-04T04:25:39;7.10;;;3.88;;
64686;SDS011;51113;53.646;-113.674;2023-02-04T04:28:07;7.88;;;3.90;;
64686;SDS011;51113;53.646;-113.674;2023-02-04T04:30:36;7.40;;;4.15;;
64686;SDS011;51113;53.646;-113.674;2023-02-04T04:33:05;10.10;;;4.03;;
64686;SDS011;51113;53.646;-113.674;2023-02-04T04:35:34;6.55;;;3.90;;
64686;SDS011;51113;53.646;-113.674;2023-02-04T04:38:02;9.15;;;4.22;;
64686;SDS011;51113;53.646;-113.674;2023-02-04T04:40:31;11.38;;;4.55;;
64686;SDS011;51113;53.646;-113.674;2023-02-04T04:43:00;10.20;;;3.92;;
64686;SDS011;51113;53.646;-113.674;2023-02-04T04:45:28;8.27;;;4.00;;
64686;SDS011;51113;53.646;-113.674;2023-02-04T04:47:57;10.00;;;4.80;;
64686;SDS011;51113;53.646;-113.674;2023-02-04T04:50:25;11.23;;;4.85;;
64686;SDS011;51113;53.646;-113.674;2023-02-04T04:52:54;9.73;;;4.15;;
64686;SDS011;51113;53.646;-113.674;2023-02-04T04:55:22;9.00;;;5.03;;
64686;SDS011;51113;53.646;-113.674;2023-02-04T04:57:51;9.73;;;4.72;;
64686;SDS011;51113;53.646;-113.674;2023-02-04T05:00:20;10.07;;;4.68;;
64686;SDS011;51113;53.646;-113.674;2023-02-04T05:02:49;9.52;;;5.18;;
64686;SDS011;51113;53.646;-113.674;2023-02-04T05:05:17;12.60;;;5.43;;
64686;SDS011;51113;53.646;-113.674;2023-02-04T05:07:46;11.00;;;5.85;;
64686;SDS011;51113;53.646;-113.674;2023-02-04T05:10:15;12.77;;;5.82;;
64686;SDS011;51113;53.646;-113.674;2023-02-04T05:12:44;10.45;;;5.10;;
64686;SDS011;51113;53.646;-113.674;2023-02-04T05:15:12;11.40;;;4.63;;
64686;SDS011;51113;53.646;-113.674;2023-02-04T05:17:41;8.30;;;4.63;;
64686;SDS011;51113;53.646;-113.674;2023-02-04T05:20:10;10.88;;;5.10;;
64686;SDS011;51113;53.646;-113.674;2023-02-04T05:22:38;12.40;;;4.18;;
64686;SDS011;51113;53.646;-113.674;2023-02-04T05:25:07;8.35;;;3.63;;
64686;SDS011;51113;53.646;-113.674;2023-02-04T05:27:36;9.00;;;3.65;;
64686;SDS011;51113;53.646;-113.674;2023-02-04T05:30:04;10.55;;;4.00;;
64686;SDS011;51113;53.646;-113.674;2023-02-04T05:32:33;10.10;;;4.25;;
64686;SDS011;51113;53.646;-113.674;2023-02-04T05:35:02;9.32;;;3.88;;
64686;SDS011;51113;53.646;-113.674;2023-02-04T05:37:31;15.77;;;4.32;;
64686;SDS011;51113;53.646;-113.674;2023-02-04T05:39:59;10.70;;;4.55;;
64686;SDS011;51113;53.646;-113.674;2023-02-04T05:42:28;10.32;;;4.45;;
64686;SDS011;51113;53.646;-113.674;2023-02-04T05:44:56;10.15;;;4.43;;
64686;SDS011;51113;53.646;-113.674;2023-02-04T05:47:25;9.20;;;3.80;;
64686;SDS011;51113;53.646;-113.674;2023-02-04T05:49:54;9.27;;;4.40;;
64686;SDS011;51113;53.646;-113.674;2023-02-04T05:52:22;8.27;;;4.65;;
64686;SDS011;51113;53.646;-113.674;2023-02-04T05:54:51;8.30;;;4.22;;
64686;SDS011;51113;53.646;-113.674;2023-02-04T05:57:19;8.45;;;4.65;;
64686;SDS011;51113;53.646;-113.674;2023-02-04T05:59:48;10.40;;;4.82;;
64686;SDS011;51113;53.646;-113.674;2023-02-04T06:02:17;13.27;;;4.60;;
64686;SDS011;51113;53.646;-113.674;2023-02-04T06:04:46;10.82;;;4.93;;
64686;SDS011;51113;53.646;-113.674;2023-02-04T06:07:14;10.43;;;4.32;;
64686;SDS011;51113;53.646;-113.674;2023-02-04T06:09:43;7.07;;;4.63;;
64686;SDS011;51113;53.646;-113.674;2023-02-04T06:12:11;9.10;;;4.20;;
64686;SDS011;51113;53.646;-113.674;2023-02-04T06:14:40;9.07;;;4.55;;
64686;SDS011;51113;53.646;-113.674;2023-02-04T06:17:09;11.95;;;4.95;;
64686;SDS011;51113;53.646;-113.674;2023-02-04T06:19:37;10.55;;;4.80;;
64686;SDS011;51113;53.646;-113.674;2023-02-04T06:22:06;11.35;;;5.47;;
64686;SDS011;51113;53.646;-113.674;2023-02-04T06:24:34;8.70;;;4.78;;
64686;SDS011;51113;53.646;-113.674;2023-02-04T06:27:03;10.95;;;5.28;;
64686;SDS011;51113;53.646;-113.674;2023-02-04T06:29:32;10.95;;;5.47;;
64686;SDS011;51113;53.646;-113.674;2023-02-04T06:32:00;9.90;;;4.85;;
64686;SDS011;51113;53.646;-113.674;2023-02-04T06:34:29;10.68;;;4.82;;
64686;SDS011;51113;53.646;-113.674;2023-02-04T06:36:58;10.60;;;5.82;;
64686;SDS011;51113;53.646;-113.674;2023-02-04T06:39:26;8.43;;;4.65;;
64686;SDS011;51113;53.646;-113.674;2023-02-04T06:41:55;11.10;;;5.00;;
64686;SDS011;51113;53.646;-113.674;2023-02-04T06:44:23;11.45;;;4.72;;
64686;SDS011;51113;53.646;-113.674;2023-02-04T06:46:52;7.80;;;4.05;;
64686;SDS011;51113;53.646;-113.674;2023-02-04T06:49:21;8.68;;;4.53;;
64686;SDS011;51113;53.646;-113.674;2023-02-04T06:51:51;9.85;;;4.72;;
64686;SDS011;51113;53.646;-113.674;2023-02-04T06:54:21;8.38;;;4.15;;
64686;SDS011;51113;53.646;-113.674;2023-02-04T06:56:50;8.88;;;3.80;;
64686;SDS011;51113;53.646;-113.674;2023-02-04T06:59:19;7.95;;;4.50;;
64686;SDS011;51113;53.646;-113.674;2023-02-04T07:01:47;9.20;;;4.20;;
64686;SDS011;51113;53.646;-113.674;2023-02-04T07:04:16;6.07;;;3.83;;
64686;SDS011;51113;53.646;-113.674;2023-02-04T07:06:45;9.93;;;4.15;;
64686;SDS011;51113;53.646;-113.674;2023-02-04T07:09:14;8.80;;;4.20;;
64686;SDS011;51113;53.646;-113.674;2023-02-04T07:11:42;8.45;;;3.95;;
64686;SDS011;51113;53.646;-113.674;2023-02-04T07:14:11;10.50;;;4.13;;
64686;SDS011;51113;53.646;-113.674;2023-02-04T07:16:40;9.23;;;4.20;;
64686;SDS011;51113;53.646;-113.674;2023-02-04T07:19:08;8.93;;;4.57;;
64686;SDS011;51113;53.646;-113.674;2023-02-04T07:21:37;11.45;;;4.55;;
64686;SDS011;51113;53.646;-113.674;2023-02-04T07:24:06;11.30;;;4.30;;
64686;SDS011;51113;53.646;-113.674;2023-02-04T07:26:34;6.88;;;4.13;;
64686;SDS011;51113;53.646;-113.674;2023-02-04T07:29:03;10.50;;;4.35;;
64686;SDS011;51113;53.646;-113.674;2023-02-04T07:31:39;8.27;;;4.53;;
64686;SDS011;51113;53.646;-113.674;2023-02-04T07:34:08;13.30;;;4.40;;
64686;SDS011;51113;53.646;-113.674;2023-02-04T07:36:37;8.25;;;3.97;;
64686;SDS011;51113;53.646;-113.674;2023-02-04T07:39:06;7.80;;;4.22;;
64686;SDS011;51113;53.646;-113.674;2023-02-04T07:41:34;9.15;;;4.30;;
64686;SDS011;51113;53.646;-113.674;2023-02-04T07:44:03;7.65;;;4.15;;
64686;SDS011;51113;53.646;-113.674;2023-02-04T07:46:31;8.23;;;4.38;;
64686;SDS011;51113;53.646;-113.674;2023-02-04T07:49:00;8.63;;;4.57;;
64686;SDS011;51113;53.646;-113.674;2023-02-04T07:51:28;7.35;;;4.28;;
64686;SDS011;51113;53.646;-113.674;2023-02-04T07:53:57;11.23;;;4.57;;
64686;SDS011;51113;53.646;-113.674;2023-02-04T07:56:25;10.65;;;5.28;;
64686;SDS011;51113;53.646;-113.674;2023-02-04T07:58:54;8.77;;;4.53;;
64686;SDS011;51113;53.646;-113.674;2023-02-04T08:01:23;9.88;;;4.57;;
64686;SDS011;51113;53.646;-113.674;2023-02-04T08:03:51;13.00;;;4.78;;
64686;SDS011;51113;53.646;-113.674;2023-02-04T08:06:21;9.13;;;5.20;;
64686;SDS011;51113;53.646;-113.674;2023-02-04T08:08:49;11.57;;;4.45;;
64686;SDS011;51113;53.646;-113.674;2023-02-04T08:11:18;8.32;;;4.47;;
64686;SDS011;51113;53.646;-113.674;2023-02-04T08:13:47;9.52;;;4.18;;
64686;SDS011;51113;53.646;-113.674;2023-02-04T08:16:15;10.52;;;4.45;;
64686;SDS011;51113;53.646;-113.674;2023-02-04T08:18:44;7.85;;;4.10;;
64686;SDS011;51113;53.646;-113.674;2023-02-04T08:21:13;8.55;;;4.32;;
64686;SDS011;51113;53.646;-113.674;2023-02-04T08:23:43;8.68;;;4.15;;
64686;SDS011;51113;53.646;-113.674;2023-02-04T08:26:11;8.68;;;4.40;;
64686;SDS011;51113;53.646;-113.674;2023-02-04T08:28:39;7.60;;;3.78;;
64686;SDS011;51113;53.646;-113.674;2023-02-04T08:31:08;7.13;;;4.28;;
64686;SDS011;51113;53.646;-113.674;2023-02-04T08:33:39;7.40;;;3.53;;
64686;SDS011;51113;53.646;-113.674;2023-02-04T08:36:08;7.45;;;3.60;;
64686;SDS011;51113;53.646;-113.674;2023-02-04T08:38:36;7.70;;;3.80;;
64686;SDS011;51113;53.646;-113.674;2023-02-04T08:41:07;7.68;;;4.03;;
64686;SDS011;51113;53.646;-113.674;2023-02-04T08:43:35;7.82;;;4.38;;
64686;SDS011;51113;53.646;-113.674;2023-02-04T08:46:04;9.65;;;4.68;;
64686;SDS011;51113;53.646;-113.674;2023-02-04T08:48:33;8.27;;;4.25;;
64686;SDS011;51113;53.646;-113.674;2023-02-04T08:51:01;10.13;;;4.15;;
64686;SDS011;51113;53.646;-113.674;2023-02-04T08:53:30;9.00;;;4.78;;
64686;SDS011;51113;53.646;-113.674;2023-02-04T08:55:59;10.25;;;4.47;;
64686;SDS011;51113;53.646;-113.674;2023-02-04T08:58:27;8.10;;;4.35;;
64686;SDS011;51113;53.646;-113.674;2023-02-04T09:00:56;7.95;;;3.92;;
64686;SDS011;51113;53.646;-113.674;2023-02-04T09:03:25;10.07;;;4.07;;
64686;SDS011;51113;53.646;-113.674;2023-02-04T09:05:53;9.18;;;4.60;;
64686;SDS011;51113;53.646;-113.674;2023-02-04T09:08:22;8.02;;;4.57;;
64686;SDS011;51113;53.646;-113.674;2023-02-04T09:10:51;10.63;;;4.68;;
64686;SDS011;51113;53.646;-113.674;2023-02-04T09:13:19;7.85;;;4.53;;
64686;SDS011;51113;53.646;-113.674;2023-02-04T09:15:48;9.70;;;4.68;;
64686;SDS011;51113;53.646;-113.674;2023-02-04T09:18:18;8.38;;;4.20;;
64686;SDS011;51113;53.646;-113.674;2023-02-04T09:20:49;10.48;;;4.15;;
64686;SDS011;51113;53.646;-113.674;2023-02-04T09:23:17;10.75;;;4.53;;
64686;SDS011;51113;53.646;-113.674;2023-02-04T09:25:46;9.45;;;3.88;;
64686;SDS011;51113;53.646;-113.674;2023-02-04T09:28:14;11.02;;;4.30;;
64686;SDS011;51113;53.646;-113.674;2023-02-04T09:30:44;7.30;;;4.28;;
64686;SDS011;51113;53.646;-113.674;2023-02-04T09:33:14;8.68;;;4.32;;
64686;SDS011;51113;53.646;-113.674;2023-02-04T09:35:46;10.82;;;4.18;;
64686;SDS011;51113;53.646;-113.674;2023-02-04T09:38:14;10.75;;;4.80;;
64686;SDS011;51113;53.646;-113.674;2023-02-04T09:40:45;8.55;;;4.63;;
64686;SDS011;51113;53.646;-113.674;2023-02-04T09:43:17;9.63;;;4.93;;
64686;SDS011;51113;53.646;-113.674;2023-02-04T09:45:52;10.50;;;5.18;;
64686;SDS011;51113;53.646;-113.674;2023-02-04T09:48:21;9.90;;;4.85;;
64686;SDS011;51113;53.646;-113.674;2023-02-04T09:50:51;10.07;;;5.18;;
64686;SDS011;51113;53.646;-113.674;2023-02-04T09:53:21;12.07;;;6.38;;
64686;SDS011;51113;53.646;-113.674;2023-02-04T09:55:50;10.98;;;5.75;;
64686;SDS011;51113;53.646;-113.674;2023-02-04T09:58:20;7.38;;;5.35;;
64686;SDS011;51113;53.646;-113.674;2023-02-04T10:01:00;9.38;;;6.20;;
64686;SDS011;51113;53.646;-113.674;2023-02-04T10:03:38;10.45;;;6.70;;
64686;SDS011;51113;53.646;-113.674;2023-02-04T10:06:14;10.90;;;7.43;;
64686;SDS011;51113;53.646;-113.674;2023-02-04T10:08:47;9.50;;;6.60;;
64686;SDS011;51113;53.646;-113.674;2023-02-04T10:11:17;10.63;;;6.70;;
64686;SDS011;51113;53.646;-113.674;2023-02-04T10:13:48;9.55;;;6.40;;
64686;SDS011;51113;53.646;-113.674;2023-02-04T10:16:29;10.40;;;6.80;;
64686;SDS011;51113;53.646;-113.674;2023-02-04T10:19:00;11.27;;;6.68;;
64686;SDS011;51113;53.646;-113.674;2023-02-04T10:21:31;9.40;;;6.20;;
64686;SDS011;51113;53.646;-113.674;2023-02-04T10:24:04;14.37;;;7.07;;
64686;SDS011;51113;53.646;-113.674;2023-02-04T10:26:38;13.70;;;6.32;;
64686;SDS011;51113;53.646;-113.674;2023-02-04T10:29:11;9.55;;;6.30;;
64686;SDS011;51113;53.646;-113.674;2023-02-04T10:31:42;11.20;;;6.05;;
64686;SDS011;51113;53.646;-113.674;2023-02-04T10:34:16;12.65;;;6.35;;
64686;SDS011;51113;53.646;-113.674;2023-02-04T10:36:53;10.10;;;6.53;;
64686;SDS011;51113;53.646;-113.674;2023-02-04T10:39:25;11.15;;;6.63;;
64686;SDS011;51113;53.646;-113.674;2023-02-04T10:41:55;9.82;;;6.13;;
64686;SDS011;51113;53.646;-113.674;2023-02-04T10:44:26;11.93;;;6.78;;
64686;SDS011;51113;53.646;-113.674;2023-02-04T10:47:03;10.80;;;7.00;;
64686;SDS011;51113;53.646;-113.674;2023-02-04T10:49:33;10.15;;;6.93;;
64686;SDS011;51113;53.646;-113.674;2023-02-04T10:52:01;14.02;;;7.03;;
64686;SDS011;51113;53.646;-113.674;2023-02-04T10:54:43;11.73;;;6.70;;
64686;SDS011;51113;53.646;-113.674;2023-02-04T10:57:22;12.13;;;6.55;;
64686;SDS011;51113;53.646;-113.674;2023-02-04T10:59:54;11.52;;;6.35;;
64686;SDS011;51113;53.646;-113.674;2023-02-04T11:02:33;10.73;;;6.10;;
64686;SDS011;51113;53.646;-113.674;2023-02-04T11:05:12;10.18;;;5.93;;
64686;SDS011;51113;53.646;-113.674;2023-02-04T11:07:50;9.57;;;6.10;;
64686;SDS011;51113;53.646;-113.674;2023-02-04T11:10:19;12.48;;;5.88;;
64686;SDS011;51113;53.646;-113.674;2023-02-04T11:20:49;8.52;;;5.10;;
64686;SDS011;51113;53.646;-113.674;2023-02-04T11:28:43;10.90;;;5.27;;
64686;SDS011;51113;53.646;-113.674;2023-02-04T11:39:35;10.30;;;5.28;;
64686;SDS011;51113;53.646;-113.674;2023-02-04T11:42:22;8.10;;;4.80;;
64686;SDS011;51113;53.646;-113.674;2023-02-04T11:47:21;7.82;;;4.75;;
64686;SDS011;51113;53.646;-113.674;2023-02-04T11:49:53;7.88;;;4.70;;
64686;SDS011;51113;53.646;-113.674;2023-02-04T11:52:26;7.30;;;4.50;;
64686;SDS011;51113;53.646;-113.674;2023-02-04T11:54:56;8.38;;;4.20;;
64686;SDS011;51113;53.646;-113.674;2023-02-04T11:57:26;6.35;;;3.78;;
64686;SDS011;51113;53.646;-113.674;2023-02-04T11:59:55;8.93;;;4.57;;
64686;SDS011;51113;53.646;-113.674;2023-02-04T12:02:24;7.60;;;4.13;;
64686;SDS011;51113;53.646;-113.674;2023-02-04T12:04:56;8.85;;;4.38;;
64686;SDS011;51113;53.646;-113.674;2023-02-04T12:07:46;7.95;;;4.22;;
64686;SDS011;51113;53.646;-113.674;2023-02-04T12:10:22;10.52;;;4.03;;
64686;SDS011;51113;53.646;-113.674;2023-02-04T12:12:53;8.43;;;4.25;;
64686;SDS011;51113;53.646;-113.674;2023-02-04T12:15:30;6.72;;;3.88;;
64686;SDS011;51113;53.646;-113.674;2023-02-04T12:18:01;7.13;;;3.78;;
64686;SDS011;51113;53.646;-113.674;2023-02-04T12:20:36;6.72;;;4.18;;
64686;SDS011;51113;53.646;-113.674;2023-02-04T12:23:05;9.48;;;4.85;;
64686;SDS011;51113;53.646;-113.674;2023-02-04T12:25:35;7.90;;;4.93;;
64686;SDS011;51113;53.646;-113.674;2023-02-04T12:28:03;8.07;;;4.35;;
64686;SDS011;51113;53.646;-113.674;2023-02-04T12:30:32;8.15;;;4.85;;
64686;SDS011;51113;53.646;-113.674;2023-02-04T12:33:01;7.43;;;4.50;;
64686;SDS011;51113;53.646;-113.674;2023-02-04T12:35:29;9.80;;;4.65;;
64686;SDS011;51113;53.646;-113.674;2023-02-04T12:37:58;8.70;;;4.20;;
64686;SDS011;51113;53.646;-113.674;2023-02-04T12:40:27;9.35;;;4.63;;
64686;SDS011;51113;53.646;-113.674;2023-02-04T12:42:56;6.97;;;4.38;;
64686;SDS011;51113;53.646;-113.674;2023-02-04T12:45:24;6.10;;;4.35;;
64686;SDS011;51113;53.646;-113.674;2023-02-04T12:47:52;7.85;;;4.28;;
64686;SDS011;51113;53.646;-113.674;2023-02-04T12:50:21;8.95;;;4.40;;
64686;SDS011;51113;53.646;-113.674;2023-02-04T12:52:50;9.55;;;4.38;;
64686;SDS011;51113;53.646;-113.674;2023-02-04T12:55:20;9.57;;;4.65;;
64686;SDS011;51113;53.646;-113.674;2023-02-04T12:57:49;6.13;;;4.15;;
64686;SDS011;51113;53.646;-113.674;2023-02-04T13:00:19;8.77;;;4.28;;
64686;SDS011;51113;53.646;-113.674;2023-02-04T13:02:48;6.75;;;4.25;;
64686;SDS011;51113;53.646;-113.674;2023-02-04T13:05:17;8.00;;;4.45;;
64686;SDS011;51113;53.646;-113.674;2023-02-04T13:07:45;8.60;;;4.50;;
64686;SDS011;51113;53.646;-113.674;2023-02-04T13:10:14;7.78;;;4.20;;
64686;SDS011;51113;53.646;-113.674;2023-02-04T13:12:43;9.40;;;4.75;;
64686;SDS011;51113;53.646;-113.674;2023-02-04T13:15:11;7.85;;;3.88;;
64686;SDS011;51113;53.646;-113.674;2023-02-04T13:17:40;7.68;;;4.28;;
64686;SDS011;51113;53.646;-113.674;2023-02-04T13:20:09;8.13;;;4.07;;
64686;SDS011;51113;53.646;-113.674;2023-02-04T13:22:39;13.93;;;4.55;;
64686;SDS011;51113;53.646;-113.674;2023-02-04T13:25:08;8.43;;;4.15;;
64686;SDS011;51113;53.646;-113.674;2023-02-04T13:27:38;6.15;;;3.88;;
64686;SDS011;51113;53.646;-113.674;2023-02-04T13:30:07;11.85;;;4.20;;
64686;SDS011;51113;53.646;-113.674;2023-02-04T13:32:36;7.57;;;4.10;;
64686;SDS011;51113;53.646;-113.674;2023-02-04T13:35:05;11.18;;;3.65;;
64686;SDS011;51113;53.646;-113.674;2023-02-04T13:37:34;10.13;;;3.72;;
64686;SDS011;51113;53.646;-113.674;2023-02-04T13:40:02;7.43;;;4.22;;
64686;SDS011;51113;53.646;-113.674;2023-02-04T13:42:32;6.82;;;3.47;;
64686;SDS011;51113;53.646;-113.674;2023-02-04T13:45:00;9.32;;;4.05;;
64686;SDS011;51113;53.646;-113.674;2023-02-04T13:47:29;6.63;;;4.03;;
64686;SDS011;51113;53.646;-113.674;2023-02-04T13:49:57;6.38;;;3.42;;
64686;SDS011;51113;53.646;-113.674;2023-02-04T13:52:26;6.30;;;3.45;;
64686;SDS011;51113;53.646;-113.674;2023-02-04T13:54:54;6.95;;;4.07;;
64686;SDS011;51113;53.646;-113.674;2023-02-04T13:57:23;9.73;;;4.05;;
64686;SDS011;51113;53.646;-113.674;2023-02-04T13:59:52;9.20;;;3.72;;
64686;SDS011;51113;53.646;-113.674;2023-02-04T14:02:20;6.43;;;3.67;;
64686;SDS011;51113;53.646;-113.674;2023-02-04T14:04:50;10.07;;;3.90;;
64686;SDS011;51113;53.646;-113.674;2023-02-04T14:07:19;8.93;;;3.85;;
64686;SDS011;51113;53.646;-113.674;2023-02-04T14:09:48;7.20;;;3.75;;
64686;SDS011;51113;53.646;-113.674;2023-02-04T14:12:16;7.63;;;3.55;;
64686;SDS011;51113;53.646;-113.674;2023-02-04T14:14:45;5.95;;;3.15;;
64686;SDS011;51113;53.646;-113.674;2023-02-04T14:17:14;7.35;;;3.60;;
64686;SDS011;51113;53.646;-113.674;2023-02-04T14:19:41;7.45;;;3.20;;
64686;SDS011;51113;53.646;-113.674;2023-02-04T14:22:10;7.82;;;3.10;;
64686;SDS011;51113;53.646;-113.674;2023-02-04T14:24:39;6.05;;;3.80;;
64686;SDS011;51113;53.646;-113.674;2023-02-04T14:27:09;6.28;;;3.33;;
64686;SDS011;51113;53.646;-113.674;2023-02-04T14:29:38;7.93;;;3.70;;
64686;SDS011;51113;53.646;-113.674;2023-02-04T14:32:06;8.23;;;3.72;;
64686;SDS011;51113;53.646;-113.674;2023-02-04T14:34:35;5.82;;;3.28;;
64686;SDS011;51113;53.646;-113.674;2023-02-04T14:37:03;5.55;;;3.40;;
64686;SDS011;51113;53.646;-113.674;2023-02-04T14:39:32;5.75;;;3.10;;
64686;SDS011;51113;53.646;-113.674;2023-02-04T14:42:00;9.20;;;2.97;;
64686;SDS011;51113;53.646;-113.674;2023-02-04T14:44:31;5.47;;;3.08;;
64686;SDS011;51113;53.646;-113.674;2023-02-04T14:47:00;6.15;;;3.03;;